Time;durP1;ratioP1;P1;durP2;ratioP2;P2;SDS_P1;SDS_P2;PMS_P1;PMS_P2;Temp;Humidity;BMP_temperature;BMP_pressure;BME280_temperature;BME280_humidity;BME280_pressure;Samples;Min_cycle;Max_cycle;Signal;HPM_P1;HPM_P2
2022/07/09 00:00:49;;;;;;;3.60;2.30;;;;;;;14.15;56.35;96752.88;5098364;28;20258;-79
2022/07/09 00:03:15;;;;;;;5.13;2.20;;;;;;;14.18;56.71;96760.41;5097342;28;20220;-80
2022/07/09 00:05:40;;;;;;;3.55;1.83;;;;;;;14.17;56.71;96750.09;5100582;28;20246;-80
2022/07/09 00:08:05;;;;;;;4.10;2.60;;;;;;;14.20;56.66;96757.66;5093382;28;20177;-79
2022/07/09 00:10:31;;;;;;;3.25;1.80;;;;;;;14.18;56.56;96752.56;5074956;28;20287;-79
2022/07/09 00:12:56;;;;;;;5.45;2.00;;;;;;;14.12;56.74;96757.53;5076749;28;20256;-79
2022/07/09 00:15:21;;;;;;;5.63;2.20;;;;;;;14.05;56.99;96757.28;5058494;28;20182;-79
2022/07/09 00:17:47;;;;;;;3.65;2.15;;;;;;;14.00;57.16;96750.81;5092837;28;20227;-79
2022/07/09 00:20:12;;;;;;;5.97;2.42;;;;;;;13.98;57.21;96750.16;5076082;28;20184;-80
2022/07/09 00:22:37;;;;;;;5.20;2.15;;;;;;;13.97;57.63;96748.50;5075934;28;20181;-79
2022/07/09 00:25:03;;;;;;;6.35;2.00;;;;;;;13.97;57.61;96738.06;5075628;28;20180;-79
2022/07/09 00:27:28;;;;;;;5.90;2.20;;;;;;;13.94;57.76;96741.75;5075505;28;20192;-79
2022/07/09 00:29:54;;;;;;;4.72;2.20;;;;;;;13.89;57.96;96743.97;5093556;28;20181;-79
2022/07/09 00:32:19;;;;;;;5.75;2.17;;;;;;;13.88;58.31;96747.53;5068123;28;20584;-79
2022/07/09 00:34:45;;;;;;;2.97;1.90;;;;;;;13.82;58.71;96737.66;5059220;28;20179;-79
2022/07/09 00:37:11;;;;;;;4.43;2.60;;;;;;;13.81;58.44;96736.81;5058890;28;20184;-79
2022/07/09 00:39:37;;;;;;;3.97;2.00;;;;;;;13.79;58.65;96736.16;5058689;28;20176;-79
2022/07/09 00:42:08;;;;;;;3.67;1.73;;;;;;;13.80;58.65;96735.19;5059605;28;20626;-79
2022/07/09 00:44:33;;;;;;;4.50;2.23;;;;;;;13.75;59.02;96729.53;5084136;28;20229;-80
2022/07/09 00:46:59;;;;;;;2.38;2.05;;;;;;;13.78;59.11;96726.66;5078576;28;20226;-79
2022/07/09 00:49:25;;;;;;;3.83;2.13;;;;;;;13.72;59.76;96729.81;5095487;28;20384;-79
2022/07/09 00:51:51;;;;;;;5.50;1.92;;;;;;;13.66;60.31;96726.94;5095803;28;20305;-78
2022/07/09 00:54:17;;;;;;;2.67;1.80;;;;;;;13.59;61.13;96719.63;5095517;28;20547;-79
2022/07/09 00:56:42;;;;;;;3.50;1.98;;;;;;;13.58;60.62;96720.59;5078527;28;20187;-79
2022/07/09 00:59:12;;;;;;;4.38;2.05;;;;;;;13.53;61.30;96714.16;5078177;28;20211;-79
2022/07/09 01:01:37;;;;;;;4.22;2.03;;;;;;;13.52;60.90;96715.97;5062145;28;20196;-79
2022/07/09 01:04:03;;;;;;;4.53;2.05;;;;;;;13.53;60.54;96711.56;5057936;28;20640;-79
2022/07/09 01:06:29;;;;;;;6.03;2.17;;;;;;;13.59;60.12;96716.22;5092998;28;20183;-79
2022/07/09 01:08:54;;;;;;;3.92;2.10;;;;;;;13.58;59.92;96710.16;5092972;28;20180;-79
2022/07/09 01:11:19;;;;;;;3.10;2.13;;;;;;;13.56;60.17;96706.06;5056578;28;20282;-79
2022/07/09 01:13:45;;;;;;;4.90;2.45;;;;;;;13.53;60.26;96706.34;5073937;28;20184;-79
2022/07/09 01:16:12;;;;;;;2.70;2.00;;;;;;;13.50;60.44;96706.59;5057694;28;20617;-79
2022/07/09 01:18:38;;;;;;;5.82;2.10;;;;;;;13.50;60.42;96706.59;5057987;28;20292;-79
2022/07/09 01:21:03;;;;;;;3.60;1.88;;;;;;;13.51;60.27;96705.63;5057868;28;20249;-79
2022/07/09 01:23:28;;;;;;;3.55;2.00;;;;;;;13.50;60.20;96701.38;5074817;28;20660;-79
2022/07/09 01:25:54;;;;;;;5.65;2.63;;;;;;;13.51;60.49;96698.63;5057308;28;20184;-79
2022/07/09 01:28:19;;;;;;;4.83;1.73;;;;;;;13.59;60.02;96697.94;5057363;28;20667;-79
2022/07/09 01:30:45;;;;;;;3.13;1.90;;;;;;;13.56;60.31;96695.63;5074297;28;20535;-79
2022/07/09 01:33:10;;;;;;;4.33;2.23;;;;;;;13.60;60.18;96687.38;5074438;28;20191;-79
2022/07/09 01:35:35;;;;;;;4.95;2.47;;;;;;;13.58;59.93;96684.06;5074068;28;20212;-79
2022/07/09 01:38:01;;;;;;;4.28;2.42;;;;;;;13.54;60.20;96685.31;5108460;28;20295;-78
2022/07/09 01:40:26;;;;;;;4.33;2.20;;;;;;;13.53;60.32;96685.47;5094444;28;20262;-79
2022/07/09 01:42:51;;;;;;;5.93;2.80;;;;;;;13.45;60.93;96680.94;5077812;28;20309;-79
2022/07/09 01:45:17;;;;;;;5.17;2.60;;;;;;;13.42;61.35;96682.97;5094164;28;20179;-79
2022/07/09 01:47:42;;;;;;;6.07;2.50;;;;;;;13.38;61.50;96690.25;5112717;28;20419;-79
2022/07/09 01:50:08;;;;;;;7.37;2.53;;;;;;;13.28;62.16;96682.44;5077536;28;20183;-78
2022/07/09 01:52:34;;;;;;;3.87;2.17;;;;;;;13.25;62.26;96676.66;5094622;28;20172;-79
2022/07/09 01:54:59;;;;;;;3.67;2.47;;;;;;;13.25;62.11;96684.47;5097289;28;20246;-79
2022/07/09 01:57:25;;;;;;;3.90;2.50;;;;;;;13.20;62.45;96674.47;5081686;28;20573;-79
2022/07/09 01:59:50;;;;;;;4.90;2.00;;;;;;;13.20;62.38;96684.91;5099290;28;20179;-79
2022/07/09 02:02:16;;;;;;;3.13;2.47;;;;;;;13.21;62.13;96675.28;5081645;28;20578;-78
2022/07/09 02:04:41;;;;;;;6.75;2.50;;;;;;;13.23;61.97;96671.56;5097861;28;20250;-78
2022/07/09 02:07:06;;;;;;;2.67;2.20;;;;;;;13.25;62.33;96672.28;5116722;28;20643;-79
2022/07/09 02:09:32;;;;;;;7.80;2.60;;;;;;;13.26;61.82;96666.09;5116552;28;20171;-79
2022/07/09 02:11:57;;;;;;;5.33;2.30;;;;;;;13.26;61.53;96662.66;5097651;28;20192;-79
2022/07/09 02:14:22;;;;;;;2.95;1.98;;;;;;;13.27;61.89;96657.31;5097910;28;20628;-79
2022/07/09 02:16:48;;;;;;;4.47;2.10;;;;;;;13.24;61.66;96665.38;5116561;28;20172;-79
2022/07/09 02:19:14;;;;;;;3.33;2.20;;;;;;;13.23;61.79;96663.75;5081044;28;20246;-79
2022/07/09 02:21:39;;;;;;;5.38;2.30;;;;;;;13.23;61.82;96662.91;5087857;28;20192;-79
2022/07/09 02:24:05;;;;;;;3.63;2.17;;;;;;;13.21;62.08;96664.84;5120126;28;20200;-79
2022/07/09 02:26:30;;;;;;;3.50;2.23;;;;;;;13.29;62.12;96657.16;5106390;28;20227;-79
2022/07/09 02:28:56;;;;;;;5.00;2.27;;;;;;;13.26;62.33;96653.06;5106851;28;20236;-79
2022/07/09 02:31:21;;;;;;;7.07;2.27;;;;;;;13.38;61.82;96658.13;5119266;28;20204;-79
2022/07/09 02:33:47;;;;;;;4.33;2.20;;;;;;;13.32;61.83;96664.72;5091168;28;20176;-80
2022/07/09 02:36:12;;;;;;;5.33;2.20;;;;;;;13.32;62.13;96672.53;5103056;28;20180;-78
2022/07/09 02:38:37;;;;;;;4.47;2.30;;;;;;;13.34;61.82;96662.81;5081252;28;20203;-78
2022/07/09 02:41:03;;;;;;;4.37;2.27;;;;;;;13.25;62.86;96667.06;5116767;28;20625;-80
2022/07/09 02:43:28;;;;;;;4.60;2.40;;;;;;;13.31;62.58;96666.50;5099216;28;20186;-80
2022/07/09 02:45:55;;;;;;;4.00;2.60;;;;;;;13.30;62.49;96654.41;5081739;28;20197;-80
2022/07/09 02:48:20;;;;;;;6.63;2.47;;;;;;;13.28;62.25;96658.13;5098490;28;20174;-80
2022/07/09 02:50:45;;;;;;;6.47;2.60;;;;;;;13.22;62.83;96662.09;5081987;28;20650;-80
2022/07/09 02:53:11;;;;;;;6.90;2.53;;;;;;;13.19;62.92;96667.59;5098910;28;20180;-80
2022/07/09 02:55:36;;;;;;;4.63;2.70;;;;;;;13.14;63.45;96661.94;5097216;28;20179;-80
2022/07/09 02:58:01;;;;;;;3.73;2.23;;;;;;;13.11;63.86;96666.59;5097979;28;20234;-80
2022/07/09 03:00:27;;;;;;;3.30;2.40;;;;;;;13.03;64.19;96662.88;5098345;28;20207;-80
2022/07/09 03:02:52;;;;;;;6.07;2.53;;;;;;;12.99;64.30;96663.31;5098706;28;20172;-79
2022/07/09 03:05:17;;;;;;;4.63;2.10;;;;;;;12.97;64.67;96665.19;5096625;28;20186;-79
2022/07/09 03:07:42;;;;;;;6.67;3.70;;;;;;;12.94;64.43;96662.88;5080922;28;20176;-79
2022/07/09 03:10:08;;;;;;;4.63;2.40;;;;;;;12.91;65.32;96660.53;5081537;28;20545;-79
2022/07/09 03:12:34;;;;;;;4.07;2.53;;;;;;;12.92;65.00;96656.97;5138378;28;20172;-79
2022/07/09 03:14:59;;;;;;;4.50;2.80;;;;;;;12.89;65.51;96657.22;5120451;28;20172;-79
2022/07/09 03:17:26;;;;;;;5.37;2.57;;;;;;;12.88;65.65;96664.22;5121849;28;20267;-79
2022/07/09 03:19:51;;;;;;;9.37;2.93;;;;;;;12.89;65.34;96663.25;5117676;28;20184;-79
2022/07/09 03:22:17;;;;;;;5.50;2.50;;;;;;;12.91;65.75;96668.38;5103404;28;20547;-79
2022/07/09 03:24:42;;;;;;;5.33;2.40;;;;;;;12.91;65.39;96670.97;5104579;28;20160;-79
2022/07/09 03:27:07;;;;;;;5.30;2.60;;;;;;;12.94;65.84;96668.91;5102668;28;20164;-79
2022/07/09 03:29:33;;;;;;;5.00;2.70;;;;;;;12.98;65.76;96661.63;5138364;28;20176;-79
2022/07/09 03:31:58;;;;;;;3.60;2.40;;;;;;;13.02;65.17;96660.41;5121324;28;20203;-79
2022/07/09 03:34:23;;;;;;;2.90;2.40;;;;;;;13.04;65.34;96661.91;5138811;28;20194;-79
2022/07/09 03:36:49;;;;;;;4.23;2.37;;;;;;;13.05;65.52;96658.34;5104436;28;20200;-79
2022/07/09 03:39:14;;;;;;;5.23;3.03;;;;;;;13.05;64.90;96666.16;5121838;28;20200;-79
2022/07/09 03:41:39;;;;;;;6.53;2.67;;;;;;;13.07;65.73;96663.41;5121983;28;20203;-79
2022/07/09 03:44:05;;;;;;;6.63;2.60;;;;;;;13.10;65.86;96663.16;5121227;28;20164;-79
2022/07/09 03:46:31;;;;;;;7.07;2.50;;;;;;;13.14;65.78;96658.50;5139566;28;20164;-79
2022/07/09 03:48:56;;;;;;;4.50;2.57;;;;;;;13.15;65.93;96660.97;5121399;28;20207;-79
2022/07/09 03:51:22;;;;;;;4.77;2.40;;;;;;;13.24;65.67;96648.91;5121458;28;20203;-79
2022/07/09 03:53:47;;;;;;;3.53;2.47;;;;;;;13.29;65.85;96655.38;5120679;28;20152;-79
2022/07/09 03:56:12;;;;;;;7.27;2.53;;;;;;;13.42;65.33;96657.69;5092794;28;20649;-79
2022/07/09 03:58:38;;;;;;;4.13;2.37;;;;;;;13.69;65.13;96654.38;5109808;28;20230;-79
2022/07/09 04:01:03;;;;;;;6.17;2.63;;;;;;;14.47;62.55;96667.25;5101905;28;20180;-79
2022/07/09 04:03:28;;;;;;;5.60;2.22;;;;;;;14.94;58.81;96663.56;5119295;28;20176;-80
2022/07/09 04:05:54;;;;;;;6.20;2.17;;;;;;;15.37;57.39;96663.81;5102823;28;20184;-79
2022/07/09 04:08:19;;;;;;;5.57;2.60;;;;;;;15.65;56.32;96667.19;5101449;28;20185;-80
2022/07/09 04:10:44;;;;;;;5.30;1.90;;;;;;;15.96;55.55;96671.03;5096980;28;20436;-79
2022/07/09 04:13:10;;;;;;;6.65;2.30;;;;;;;16.52;52.72;96671.47;5100936;28;20176;-80
2022/07/09 04:15:35;;;;;;;3.15;2.10;;;;;;;16.72;52.16;96672.13;5135585;28;20171;-80
2022/07/09 04:18:00;;;;;;;3.88;2.08;;;;;;;16.74;52.05;96670.97;5117154;28;20222;-79
2022/07/09 04:20:26;;;;;;;2.55;1.92;;;;;;;16.60;52.34;96674.97;5103302;28;20187;-79
2022/07/09 04:22:51;;;;;;;3.65;2.08;;;;;;;16.15;54.24;96670.81;5083901;28;20191;-79
2022/07/09 04:25:17;;;;;;;4.88;2.20;;;;;;;16.24;54.54;96676.91;5099651;28;20180;-79
2022/07/09 04:27:42;;;;;;;5.20;2.10;;;;;;;16.74;53.19;96681.47;5099583;28;20172;-79
2022/07/09 04:30:09;;;;;;;4.35;2.40;;;;;;;17.16;51.70;96676.19;5099289;28;20182;-80
2022/07/09 04:32:34;;;;;;;5.57;2.22;;;;;;;17.75;50.02;96684.78;5099097;28;20191;-79
2022/07/09 04:34:59;;;;;;;5.10;1.98;;;;;;;18.25;48.80;96683.75;5097242;28;20195;-81
2022/07/09 04:37:25;;;;;;;5.82;2.10;;;;;;;18.88;46.72;96680.28;5081003;28;20204;-79
2022/07/09 04:39:50;;;;;;;5.85;2.00;;;;;;;18.30;47.85;96680.63;5099297;28;20176;-80
2022/07/09 04:42:15;;;;;;;3.17;1.80;;;;;;;17.72;49.23;96679.88;5098501;28;20196;-79
2022/07/09 04:44:42;;;;;;;5.97;1.92;;;;;;;17.50;50.18;96683.13;5116120;28;20184;-80
2022/07/09 04:47:08;;;;;;;3.97;2.00;;;;;;;17.09;51.34;96680.44;5098422;28;20171;-80
2022/07/09 04:49:34;;;;;;;4.80;2.25;;;;;;;16.67;52.98;96670.75;5098218;28;20214;-80
2022/07/09 04:51:59;;;;;;;4.03;2.00;;;;;;;16.98;52.54;96672.84;5081250;28;20200;-81
2022/07/09 04:54:24;;;;;;;7.07;2.42;;;;;;;17.71;51.24;96675.59;5115938;28;20201;-81
2022/07/09 04:56:50;;;;;;;5.53;2.08;;;;;;;19.64;47.00;96683.16;5098593;28;20175;-80
2022/07/09 04:59:15;;;;;;;4.30;1.73;;;;;;;21.46;42.78;96672.91;5098353;28;20208;-80
2022/07/09 05:01:40;;;;;;;5.20;1.90;;;;;;;23.80;38.28;96681.00;5098333;28;20196;-81
2022/07/09 05:04:06;;;;;;;3.20;1.80;;;;;;;25.31;34.85;96680.94;5097703;28;20172;-81
2022/07/09 05:06:31;;;;;;;4.13;1.52;;;;;;;26.27;31.95;96680.69;5080284;28;20175;-81
2022/07/09 05:08:56;;;;;;;5.10;1.80;;;;;;;26.05;32.72;96682.09;5080140;28;20168;-81
2022/07/09 05:11:21;;;;;;;5.20;1.90;;;;;;;25.98;32.09;96685.63;5079363;28;20208;-81
2022/07/09 05:13:47;;;;;;;4.32;1.40;;;;;;;27.20;30.85;96683.19;5096077;28;20190;-81
2022/07/09 05:16:12;;;;;;;2.88;1.60;;;;;;;27.34;30.34;96681.19;5079609;28;20195;-82
2022/07/09 05:18:38;;;;;;;4.15;1.83;;;;;;;27.49;29.88;96683.44;5096720;28;20261;-81
2022/07/09 05:21:03;;;;;;;5.13;1.90;;;;;;;27.22;30.46;96677.66;5096653;28;20194;-82
2022/07/09 05:23:29;;;;;;;4.47;1.73;;;;;;;27.16;30.44;96682.03;5080150;28;20176;-82
2022/07/09 05:25:54;;;;;;;4.95;1.90;;;;;;;28.37;28.90;96680.88;5097667;28;20191;-82
2022/07/09 05:28:19;;;;;;;4.25;1.75;;;;;;;29.05;28.43;96690.91;5096611;28;20627;-81
2022/07/09 05:30:45;;;;;;;3.13;1.42;;;;;;;29.71;26.65;96675.34;5079373;28;20214;-82
2022/07/09 05:33:10;;;;;;;3.85;1.90;;;;;;;29.12;27.20;96687.31;5095839;28;20183;-82
2022/07/09 05:35:35;;;;;;;5.18;1.42;;;;;;;27.85;28.87;96686.03;5078734;28;20176;-82
2022/07/09 05:38:01;;;;;;;4.28;2.15;;;;;;;28.56;28.33;96688.78;5113653;28;20211;-82
2022/07/09 05:40:27;;;;;;;4.85;1.77;;;;;;;28.85;27.71;96693.16;5114525;28;20640;-81
2022/07/09 05:42:52;;;;;;;3.70;1.80;;;;;;;28.16;28.94;96692.09;5116786;28;20175;-82
2022/07/09 05:45:18;;;;;;;5.15;1.70;;;;;;;27.36;29.67;96690.56;5114266;28;20191;-81
2022/07/09 05:47:43;;;;;;;7.07;1.75;;;;;;;27.30;29.63;96686.16;5095139;28;20171;-81
2022/07/09 05:50:09;;;;;;;2.97;1.35;;;;;;;29.93;26.14;96688.00;5094669;28;20655;-81
2022/07/09 05:52:34;;;;;;;6.03;1.70;;;;;;;29.05;27.34;96704.28;5101029;28;20194;-82
2022/07/09 05:55:00;;;;;;;4.60;1.70;;;;;;;29.41;25.95;96705.00;5090722;28;20203;-82
2022/07/09 05:57:25;;;;;;;3.25;1.77;;;;;;;29.11;26.27;96699.88;5095465;28;20176;-82
2022/07/09 05:59:50;;;;;;;5.45;1.73;;;;;;;27.66;28.86;96697.81;5095434;28;20186;-80
2022/07/09 06:02:16;;;;;;;4.32;1.65;;;;;;;28.26;27.84;96695.00;5095705;28;20215;-80
2022/07/09 06:04:41;;;;;;;4.85;2.13;;;;;;;28.08;28.71;96689.75;5077944;28;20192;-81
2022/07/09 06:07:06;;;;;;;2.95;1.52;;;;;;;29.04;27.64;96694.66;5095350;28;20288;-80
2022/07/09 06:09:32;;;;;;;5.05;1.77;;;;;;;29.21;26.49;96699.25;5078252;28;20626;-80
2022/07/09 06:11:58;;;;;;;4.20;1.90;;;;;;;28.83;26.84;96691.75;5113360;28;20211;-80
2022/07/09 06:14:23;;;;;;;5.55;1.77;;;;;;;29.59;25.51;96683.41;5108294;28;20223;-81
2022/07/09 06:16:48;;;;;;;8.55;1.73;;;;;;;29.66;26.09;96687.81;5118704;28;20180;-82
2022/07/09 06:19:14;;;;;;;2.72;1.70;;;;;;;30.23;25.44;96693.09;5119097;28;20241;-82
2022/07/09 06:21:40;;;;;;;4.30;1.90;;;;;;;30.08;25.54;96689.13;5103006;28;20255;-82
2022/07/09 06:24:05;;;;;;;4.28;1.77;;;;;;;30.74;24.61;96694.66;5119340;28;20169;-82
2022/07/09 06:26:31;;;;;;;5.00;1.70;;;;;;;29.66;25.88;96685.94;5102688;28;20156;-82
2022/07/09 06:28:56;;;;;;;4.28;1.95;;;;;;;30.55;24.68;96686.06;5119144;28;20168;-82
2022/07/09 06:31:22;;;;;;;2.50;1.45;;;;;;;30.77;24.82;96688.00;5102611;28;20343;-81
2022/07/09 06:33:48;;;;;;;3.03;1.50;;;;;;;30.08;25.86;96686.44;5119254;28;20187;-82
2022/07/09 06:36:13;;;;;;;4.15;1.50;;;;;;;29.60;25.80;96690.41;5102395;28;20168;-81
2022/07/09 06:39:44;;;;;;;4.35;2.03;;;;;;;29.77;25.64;96692.28;5102244;28;20196;-82
2022/07/09 06:41:24;;;;;;;4.38;1.50;;;;;;;31.51;23.77;96686.50;5123705;28;20184;-82
2022/07/09 06:43:49;;;;;;;3.33;1.30;;;;;;;30.79;24.27;96685.88;5105567;28;20164;-82
2022/07/09 06:46:14;;;;;;;4.60;1.40;;;;;;;31.24;24.26;96683.78;5140561;28;20232;-82
2022/07/09 06:48:39;;;;;;;7.53;1.42;;;;;;;30.34;25.10;96681.47;5122984;28;20322;-82
2022/07/09 06:51:05;;;;;;;4.13;1.30;;;;;;;29.98;26.01;96686.25;5122531;28;20264;-81
2022/07/09 06:53:30;;;;;;;4.38;1.67;;;;;;;29.31;26.45;96684.22;5119571;28;20211;-80
2022/07/09 06:55:55;;;;;;;4.65;1.38;;;;;;;28.56;27.51;96681.56;5104828;28;20270;-82
2022/07/09 06:58:21;;;;;;;3.00;1.30;;;;;;;27.23;29.82;96677.44;5105921;28;20263;-81
2022/07/09 07:00:46;;;;;;;3.28;1.50;;;;;;;26.81;31.19;96671.94;5105841;28;20187;-82
2022/07/09 07:03:11;;;;;;;3.22;1.40;;;;;;;27.39;30.62;96678.66;5122492;28;20203;-81
2022/07/09 07:05:36;;;;;;;2.95;1.02;;;;;;;27.75;28.89;96677.75;5139593;28;20160;-81
2022/07/09 07:08:02;;;;;;;3.97;1.65;;;;;;;29.09;28.19;96683.25;5110251;28;20200;-80
2022/07/09 07:10:27;;;;;;;2.88;1.02;;;;;;;28.13;28.87;96677.34;5100533;28;20211;-82
2022/07/09 07:12:54;;;;;;;1.63;1.08;;;;;;;26.39;31.79;96675.47;5085366;28;20190;-80
2022/07/09 07:15:19;;;;;;;4.85;0.95;;;;;;;27.44;29.86;96677.97;5100678;28;20180;-80
2022/07/09 07:17:44;;;;;;;4.38;0.90;;;;;;;28.86;28.37;96684.06;5102642;28;20740;-80
2022/07/09 07:20:10;;;;;;;3.03;0.85;;;;;;;27.77;29.92;96677.53;5113248;28;20636;-80
2022/07/09 07:22:36;;;;;;;2.20;0.70;;;;;;;30.14;26.43;96682.78;5084117;28;20612;-80
2022/07/09 07:25:01;;;;;;;2.72;1.00;;;;;;;28.21;29.57;96676.19;5100203;28;20176;-81
2022/07/09 07:27:26;;;;;;;4.90;1.20;;;;;;;27.92;28.99;96675.25;5118007;28;20186;-80
2022/07/09 07:29:51;;;;;;;4.40;1.15;;;;;;;28.85;28.06;96679.78;5082186;28;20210;-80
2022/07/09 07:32:17;;;;;;;1.45;0.98;;;;;;;30.08;25.99;96672.22;5117054;28;20667;-81
2022/07/09 07:34:42;;;;;;;5.28;1.40;;;;;;;29.46;27.51;96683.69;5098362;28;20183;-81
2022/07/09 07:37:07;;;;;;;2.70;1.33;;;;;;;28.59;28.45;96681.09;5089564;28;20198;-82
2022/07/09 07:39:32;;;;;;;2.15;1.00;;;;;;;27.42;30.03;96677.38;5122356;28;20699;-81
2022/07/09 07:41:58;;;;;;;5.63;1.73;;;;;;;28.41;28.63;96681.22;5099083;28;20188;-81
2022/07/09 07:44:24;;;;;;;1.98;0.90;;;;;;;28.15;29.67;96679.78;5112809;28;20178;-82
2022/07/09 07:46:49;;;;;;;2.22;1.08;;;;;;;27.81;29.96;96676.00;5104693;28;20184;-82
2022/07/09 07:49:14;;;;;;;3.83;1.25;;;;;;;28.02;29.34;96672.00;5114700;28;20541;-81
2022/07/09 07:51:41;;;;;;;3.00;1.40;;;;;;;27.18;31.44;96671.94;5096208;28;20218;-80
2022/07/09 07:54:06;;;;;;;2.50;1.30;;;;;;;26.94;30.21;96676.31;5088444;28;20183;-80
2022/07/09 07:56:33;;;;;;;3.92;1.55;;;;;;;27.33;30.47;96674.22;5115797;28;20172;-81
2022/07/09 07:58:58;;;;;;;2.22;1.30;;;;;;;27.31;30.30;96671.78;5097862;28;20207;-81
2022/07/09 08:01:23;;;;;;;3.30;1.48;;;;;;;26.00;32.34;96669.44;5098685;28;20266;-81
2022/07/09 08:03:49;;;;;;;4.65;1.38;;;;;;;26.74;31.47;96670.41;5081613;28;20592;-81
2022/07/09 08:06:14;;;;;;;4.72;1.40;;;;;;;26.48;31.71;96676.81;5101523;28;20538;-82
2022/07/09 08:08:39;;;;;;;2.45;1.33;;;;;;;26.20;31.47;96663.94;5081456;28;20175;-81
2022/07/09 08:11:05;;;;;;;1.65;1.05;;;;;;;25.53;33.57;96660.13;5080733;28;20199;-82
2022/07/09 08:13:30;;;;;;;1.88;1.20;;;;;;;24.93;33.87;96673.72;5099153;28;20643;-80
2022/07/09 08:15:56;;;;;;;4.22;1.40;;;;;;;24.86;34.36;96678.22;5098274;28;20182;-81
2022/07/09 08:18:21;;;;;;;2.30;1.38;;;;;;;25.09;34.46;96675.94;5082382;28;20570;-80
2022/07/09 08:20:49;;;;;;;3.45;1.40;;;;;;;25.07;33.25;96675.31;5098963;28;20206;-82
2022/07/09 08:23:14;;;;;;;3.03;1.40;;;;;;;24.46;34.53;96672.19;5082020;28;20536;-82
2022/07/09 08:25:39;;;;;;;2.63;1.38;;;;;;;25.38;32.59;96663.09;5081558;28;20246;-80
2022/07/09 08:28:05;;;;;;;2.95;1.55;;;;;;;26.08;32.69;96663.03;5099058;28;20180;-79
2022/07/09 08:30:30;;;;;;;1.88;1.23;;;;;;;25.40;32.99;96658.38;5116323;28;20188;-80
2022/07/09 08:32:56;;;;;;;2.70;1.30;;;;;;;25.43;33.08;96658.75;5097692;28;20172;-80
2022/07/09 08:35:21;;;;;;;3.58;1.10;;;;;;;25.32;33.15;96656.78;5080313;28;20188;-80
2022/07/09 08:37:46;;;;;;;2.00;1.40;;;;;;;25.74;32.77;96656.34;5115890;28;20274;-81
2022/07/09 08:40:12;;;;;;;4.10;1.50;;;;;;;24.50;35.18;96658.31;5098213;28;20179;-80
2022/07/09 08:42:37;;;;;;;4.40;1.30;;;;;;;24.33;34.99;96659.78;5098122;28;20171;-80
2022/07/09 08:45:03;;;;;;;2.20;1.20;;;;;;;24.43;35.03;96652.19;5096869;28;20183;-81
2022/07/09 08:47:29;;;;;;;3.60;1.30;;;;;;;24.86;34.76;96651.66;5097757;28;20202;-81
2022/07/09 08:49:56;;;;;;;3.53;1.10;;;;;;;25.33;34.05;96647.78;5080915;28;20551;-81
2022/07/09 08:52:23;;;;;;;3.78;1.38;;;;;;;24.31;34.78;96651.19;5080830;28;20195;-81
2022/07/09 08:54:48;;;;;;;1.25;1.08;;;;;;;23.74;36.02;96640.19;5096763;28;20528;-81
2022/07/09 08:57:14;;;;;;;3.08;1.13;;;;;;;23.22;37.78;96642.72;5080742;28;20269;-80
2022/07/09 08:59:39;;;;;;;4.65;1.98;;;;;;;23.66;38.20;96652.81;5115902;28;20172;-80
2022/07/09 09:02:05;;;;;;;1.33;1.00;;;;;;;23.77;37.13;96648.78;5080211;28;20196;-81
2022/07/09 09:04:32;;;;;;;3.08;1.23;;;;;;;24.02;35.87;96641.81;5079220;28;20224;-81
2022/07/09 09:06:57;;;;;;;1.88;1.23;;;;;;;23.07;36.80;96634.97;5097571;28;20643;-79
2022/07/09 09:09:22;;;;;;;3.72;1.30;;;;;;;23.59;36.42;96630.75;5079838;28;20186;-80
2022/07/09 09:11:49;;;;;;;2.65;1.10;;;;;;;23.74;37.31;96632.22;5079055;28;20204;-80
2022/07/09 09:14:22;;;;;;;3.70;1.45;;;;;;;23.82;35.62;96639.16;5097039;28;20182;-81
2022/07/09 09:16:47;;;;;;;2.58;1.02;;;;;;;23.68;36.02;96633.06;5080553;28;20221;-81
2022/07/09 09:19:13;;;;;;;6.05;1.55;;;;;;;22.37;38.05;96631.56;5099942;28;20203;-80
2022/07/09 09:21:38;;;;;;;2.65;1.20;;;;;;;22.45;38.24;96628.75;5091281;28;20195;-79
2022/07/09 09:24:04;;;;;;;2.80;1.67;;;;;;;22.18;38.28;96624.34;5081488;28;20190;-80
2022/07/09 09:26:29;;;;;;;2.13;1.20;;;;;;;22.31;37.80;96621.75;5098537;28;20179;-80
2022/07/09 09:28:57;;;;;;;1.95;0.98;;;;;;;22.66;36.40;96624.38;5096198;28;20226;-80
2022/07/09 09:31:41;;;;;;;1.95;0.98;;;;;;;23.24;35.67;96624.81;5079041;28;20230;-80
2022/07/09 09:34:06;;;;;;;1.77;0.82;;;;;;;23.96;34.87;96621.41;5095236;28;20215;-80
2022/07/09 09:36:42;;;;;;;2.10;1.00;;;;;;;24.54;32.99;96621.53;5095477;28;20195;-80
2022/07/09 09:39:19;;;;;;;4.20;0.90;;;;;;;24.62;31.43;96623.97;5078536;28;20469;-80
2022/07/09 09:41:50;;;;;;;3.33;0.85;;;;;;;24.67;31.50;96618.84;5114214;28;20205;-81
2022/07/09 09:44:18;;;;;;;3.28;1.00;;;;;;;23.74;32.21;96618.16;5095129;28;20180;-81
2022/07/09 09:46:43;;;;;;;1.50;0.70;;;;;;;24.14;32.48;96608.34;5079723;28;20557;-81
2022/07/09 09:49:11;;;;;;;3.08;1.10;;;;;;;24.47;32.14;96618.06;5079782;28;20167;-80
2022/07/09 09:51:44;;;;;;;2.95;1.02;;;;;;;24.41;31.31;96616.28;5097445;28;20525;-80
2022/07/09 09:54:10;;;;;;;1.35;1.00;;;;;;;24.74;33.03;96610.84;5079625;28;20187;-80
2022/07/09 09:56:35;;;;;;;3.28;1.30;;;;;;;24.82;32.00;96614.06;5097070;28;20180;-81
2022/07/09 09:59:01;;;;;;;2.58;1.10;;;;;;;24.71;33.93;96617.38;5096213;28;20210;-80
2022/07/09 10:01:27;;;;;;;2.75;1.35;;;;;;;24.90;33.81;96601.56;5079667;28;20195;-80
2022/07/09 10:03:53;;;;;;;3.63;1.20;;;;;;;25.01;34.08;96606.25;5095504;28;20230;-80
2022/07/09 10:06:19;;;;;;;3.72;1.23;;;;;;;25.13;34.29;96600.06;5095774;28;20225;-80
2022/07/09 10:08:44;;;;;;;2.25;1.30;;;;;;;25.58;33.09;96599.13;5079168;28;20188;-80
2022/07/09 10:11:09;;;;;;;1.40;1.20;;;;;;;26.25;32.18;96598.38;5095151;28;20202;-81
2022/07/09 10:13:38;;;;;;;3.92;1.23;;;;;;;26.01;31.86;96599.22;5096099;28;20172;-81
2022/07/09 10:16:03;;;;;;;3.47;1.40;;;;;;;24.92;33.52;96596.88;5098816;28;20176;-81
2022/07/09 10:18:28;;;;;;;2.63;1.20;;;;;;;24.80;34.22;96594.06;5100081;28;20215;-80
2022/07/09 10:20:57;;;;;;;1.65;1.30;;;;;;;24.75;35.00;96600.00;5100025;28;20626;-81
2022/07/09 10:23:23;;;;;;;2.45;1.30;;;;;;;24.91;32.76;96598.69;5118111;28;20729;-81
2022/07/09 10:25:55;;;;;;;2.47;1.10;;;;;;;24.76;33.49;96600.84;5100421;28;20249;-81
2022/07/09 10:28:21;;;;;;;2.67;1.20;;;;;;;24.35;33.58;96596.66;5083644;28;20172;-80
2022/07/09 10:30:47;;;;;;;1.55;1.13;;;;;;;25.09;33.56;96592.69;5099894;28;20188;-80
2022/07/09 10:33:23;;;;;;;2.72;1.33;;;;;;;25.31;33.66;96595.84;5082962;28;20176;-80
2022/07/09 10:35:51;;;;;;;3.83;0.98;;;;;;;24.83;34.31;96593.66;5082188;28;20182;-81
2022/07/09 10:38:17;;;;;;;1.60;1.00;;;;;;;24.74;33.45;96589.59;5082591;28;20239;-81
2022/07/09 10:40:45;;;;;;;2.08;1.00;;;;;;;24.95;32.23;96586.63;5082513;28;20231;-81
2022/07/09 10:43:10;;;;;;;1.90;0.95;;;;;;;24.78;32.47;96588.16;5099850;28;20195;-81
2022/07/09 10:45:39;;;;;;;3.63;1.08;;;;;;;24.24;33.29;96590.13;5099484;28;20534;-81
2022/07/09 10:48:06;;;;;;;1.60;1.08;;;;;;;24.21;33.48;96600.38;5082640;28;20164;-82
2022/07/09 10:50:33;;;;;;;1.40;1.27;;;;;;;24.90;33.19;96583.78;5099969;28;20191;-81
2022/07/09 10:52:59;;;;;;;1.25;0.85;;;;;;;25.26;33.21;96587.69;5100186;28;20180;-81
2022/07/09 10:55:28;;;;;;;1.52;1.10;;;;;;;24.88;33.15;96588.50;5082540;28;20241;-81
2022/07/09 10:57:54;;;;;;;1.85;1.17;;;;;;;24.78;33.28;96588.16;5082075;28;20207;-81
2022/07/09 11:00:22;;;;;;;1.40;1.10;;;;;;;24.65;33.03;96596.16;5100875;28;20249;-82
2022/07/09 11:03:03;;;;;;;1.85;0.90;;;;;;;24.54;33.23;96590.47;5084557;28;20183;-81
2022/07/09 11:05:30;;;;;;;2.50;1.10;;;;;;;24.03;32.82;96590.41;5083612;28;20206;-82
2022/07/09 11:07:59;;;;;;;2.20;1.08;;;;;;;24.39;32.88;96586.47;5082480;28;20246;-81
2022/07/09 11:10:26;;;;;;;1.80;1.17;;;;;;;24.41;32.79;96590.53;5081258;28;20643;-81
2022/07/09 11:12:52;;;;;;;2.28;1.00;;;;;;;23.64;33.92;96592.03;5082820;28;20180;-81
2022/07/09 11:15:19;;;;;;;1.80;1.10;;;;;;;24.01;35.08;96585.28;5099286;28;20190;-81
2022/07/09 11:17:44;;;;;;;2.63;1.30;;;;;;;24.21;34.67;96589.75;5082474;28;20257;-81
2022/07/09 11:20:12;;;;;;;2.03;1.00;;;;;;;24.15;33.63;96594.03;5099250;28;20609;-81
2022/07/09 11:22:37;;;;;;;1.88;0.90;;;;;;;24.52;33.72;96589.88;5081785;28;20176;-80
2022/07/09 11:25:03;;;;;;;3.53;1.52;;;;;;;24.62;34.33;96592.09;5098453;28;20168;-80
2022/07/09 11:27:29;;;;;;;1.83;1.20;;;;;;;23.99;34.18;96584.66;5116360;28;20683;-80